Latest Weather Observations for Derby

IDW60801

Issued at 9:34 am WST Sunday 25 June 2017 (issued every 30 minutes, with the page automatically refreshed every 10 minutes)

About weather observations | Map of weather stations | Latest weather observations for WA | Other Formats
Station Details ID: 003032 Name: DERBY AERO Lat: -17.37 Lon: 123.66 Height: 6.2 m
Data from the previous 72 hours. | See also: Recent months at Derby
Date/Time
WST
Temp
°C
App
Temp
°C
Dew
Point
°C
Rel
Hum
%
Delta-T
°C
Wind Press
QNH
hPa
Press
MSL
hPa
Rain since
9am
mm
Dir  Spd
km/h
Gust
km/h
Spd
kts
Gust
kts
25/09:30am 25.7 25.7 15.1 52 6.4 SSE 9 15 5 8 1014.5 1014.5 0.0
25/09:00am 24.1 24.1 15.3 58 5.3 S 9 13 5 7 1014.7 1014.7 0.0
25/08:30am 22.9 23.1 15.7 64 4.3 SSE 9 13 5 7 1014.6 1014.6 0.0
25/08:00am 22.1 23.0 16.1 69 3.6 SSE 6 9 3 5 1014.1 1014.1 0.0
25/07:30am 20.6 22.7 16.2 76 2.6 CALM 0 9 0 5 1013.9 1013.9 0.0
25/07:00am 19.2 20.9 15.1 77 2.4 CALM 0 7 0 4 1013.5 1013.5 0.0
25/06:30am 17.2 17.8 14.3 83 1.7 ENE 4 6 2 3 1013.1 1013.1 0.0
25/06:00am 18.3 18.7 15.2 82 1.8 ENE 7 9 4 5 1012.7 1012.7 0.0
25/05:30am 18.2 18.3 14.5 79 2.1 ESE 7 9 4 5 1012.5 1012.5 0.0
25/05:00am 18.4 18.3 14.9 80 2.0 SSE 9 11 5 6 1012.1 1012.1 0.0
25/04:30am 18.4 18.4 15.1 81 1.9 SE 9 9 5 5 1012.1 1012.1 0.0
25/04:00am 17.9 17.7 14.8 82 1.8 SE 9 9 5 5 1012.1 1012.1 0.0
25/03:30am 18.0 17.8 14.7 81 1.9 SE 9 9 5 5 1012.1 1012.1 0.0
25/03:00am 18.2 18.2 14.3 78 2.2 SE 7 9 4 5 1012.1 1012.1 0.0
25/02:30am 18.1 17.6 13.8 76 2.4 SE 9 11 5 6 1012.1 1012.1 0.0
25/02:00am 18.6 18.4 13.7 73 2.8 SE 7 9 4 5 1012.3 1012.3 0.0
25/01:30am 18.1 17.8 13.4 74 2.7 SSE 7 9 4 5 1012.3 1012.3 0.0
25/01:00am 19.3 19.2 13.9 71 3.1 S 7 7 4 4 1012.4 1012.4 0.0
25/12:30am 19.5 19.5 13.7 69 3.3 SW 6 9 3 5 1012.6 1012.6 0.0
25/12:00am 19.3 20.5 13.7 70 3.2 CALM 0 0 0 0 1012.7 1012.7 0.0
 
Date/Time
WST
Temp
°C
App
Temp
°C
Dew
Point
°C
Rel
Hum
%
Delta-T
°C
Wind Press
QNH
hPa
Press
MSL
hPa
Rain since
9am
mm
Dir  Spd
km/h
Gust
km/h
Spd
kts
Gust
kts
24/11:30pm 20.2 20.6 13.6 66 3.8 SW 4 6 2 3 1012.7 1012.7 0.0
24/11:00pm 20.9 20.9 14.1 65 3.9 SW 7 9 4 5 1012.8 1012.8 0.0
24/10:30pm 21.1 21.5 15.2 69 3.5 WNW 7 9 4 5 1012.9 1012.9 0.0
24/10:00pm 21.1 21.2 15.4 70 3.4 NW 9 9 5 5 1013.0 1013.0 0.0
24/09:30pm 21.3 21.5 15.8 71 3.3 NW 9 11 5 6 1013.0 1013.0 0.0
24/09:00pm 21.7 21.1 14.6 64 4.2 NNW 11 13 6 7 1013.0 1013.0 0.0
24/08:30pm 22.2 21.8 12.5 54 5.5 NNE 6 7 3 4 1012.7 1012.7 0.0
24/08:00pm 23.0 22.4 12.3 51 6.1 N 7 9 4 5 1012.4 1012.4 0.0
24/07:30pm 23.3 22.3 11.0 46 6.8 WNW 7 9 4 5 1012.2 1012.2 0.0
24/07:00pm 23.6 21.9 11.3 46 6.9 NNW 11 13 6 7 1011.6 1011.6 0.0
24/06:30pm 24.3 22.7 10.2 41 7.8 NNW 9 11 5 6 1011.2 1011.2 0.0
24/06:00pm 25.5 23.7 9.3 36 8.9 N 9 11 5 6 1011.0 1011.0 0.0
24/05:30pm 26.6 24.3 9.0 33 9.6 N 11 13 6 7 1010.9 1010.9 0.0
24/05:00pm 28.7 26.0 8.9 29 10.9 NNW 13 17 7 9 1010.5 1010.5 0.0
24/04:30pm 30.1 27.2 9.6 28 11.5 N 15 19 8 10 1010.1 1010.1 0.0
24/04:00pm 30.8 27.9 9.6 27 12.0 NNW 15 19 8 10 1009.8 1009.8 0.0
24/03:30pm 31.2 28.8 10.0 27 12.1 NW 13 17 7 9 1009.6 1009.6 0.0
24/03:00pm 31.7 29.2 11.0 28 12.0 NW 15 17 8 9 1009.6 1009.6 0.0
24/02:30pm 31.7 29.4 10.4 27 12.2 NW 13 19 7 10 1009.6 1009.6 0.0
24/02:00pm 31.2 28.5 10.5 28 11.9 NW 15 20 8 11 1009.8 1009.8 0.0
24/01:30pm 31.5 28.7 11.3 29 11.7 WNW 17 20 9 11 1010.1 1010.1 0.0
24/01:00pm 30.9 29.2 12.3 32 11.0 NW 13 17 7 9 1010.5 1010.5 0.0
24/12:30pm 30.9 29.8 13.2 34 10.6 NW 11 17 6 9 1010.9 1010.9 0.0
24/12:00pm 30.7 29.9 13.0 33 10.5 NNW 9 19 5 10 1011.4 1011.4 0.0
24/11:30am 30.4 29.8 12.3 33 10.6 WNW 7 13 4 7 1012.2 1012.2 0.0
24/11:00am 30.0 29.4 12.4 34 10.3 N 7 13 4 7 1013.0 1013.0 0.0
24/10:30am 28.8 28.2 11.8 35 9.8 N 6 11 3 6 1013.5 1013.5 0.0
24/10:00am 28.0 27.4 12.4 38 9.1 NE 7 11 4 6 1013.9 1013.9 0.0
24/09:30am 25.5 24.6 11.3 41 8.0 SSE 7 11 4 6 1014.2 1014.2 0.0
24/09:00am 24.2 22.4 10.8 43 7.5 S 11 15 6 8 1014.3 1014.3 0.0
24/08:30am 22.3 20.9 12.3 53 5.7 SSW 11 15 6 8 1014.2 1014.2 0.0
24/08:00am 20.3 18.8 13.0 63 4.1 S 13 17 7 9 1013.9 1013.9 0.0
24/07:30am 18.8 17.9 13.6 72 3.0 S 11 15 6 8 1013.7 1013.7 0.0
24/07:00am 17.6 17.0 14.5 82 1.8 SSE 11 15 6 8 1013.5 1013.5 0.0
24/06:30am 16.5 16.2 14.3 87 1.3 SSE 9 13 5 7 1013.0 1013.0 0.0
24/06:00am 16.4 16.0 14.1 86 1.3 SSE 9 13 5 7 1012.6 1012.6 0.0
24/05:30am 16.4 16.2 13.5 83 1.6 SE 7 11 4 6 1012.4 1012.4 0.0
24/05:00am 16.8 16.2 13.5 81 1.9 SSE 9 11 5 6 1012.2 1012.2 0.0
24/04:30am 17.2 16.6 13.5 79 2.1 SSE 9 11 5 6 1012.2 1012.2 0.0
24/04:00am 17.4 16.7 13.3 77 2.3 SSE 9 11 5 6 1012.2 1012.2 0.0
24/03:30am 17.6 16.9 13.1 75 2.5 SSE 9 11 5 6 1012.2 1012.2 0.0
24/03:00am 17.9 17.1 13.0 73 2.7 SSE 9 11 5 6 1012.2 1012.2 0.0
24/02:30am 18.3 17.2 13.0 71 3.0 SSE 11 13 6 7 1012.5 1012.5 0.0
24/02:00am 18.5 17.3 12.7 69 3.2 SSE 11 13 6 7 1012.6 1012.6 0.0
24/01:30am 19.0 17.9 13.2 69 3.3 SSE 11 13 6 7 1012.6 1012.6 0.0
24/01:00am 18.5 17.3 12.7 69 3.2 SSE 11 15 6 8 1012.8 1012.8 0.0
24/12:30am 17.3 16.3 12.4 73 2.7 SE 9 11 5 6 1013.0 1013.0 0.0
24/12:00am 16.9 16.2 12.0 73 2.7 SE 7 7 4 4 1012.9 1012.9 0.0
 
Date/Time
WST
Temp
°C
App
Temp
°C
Dew
Point
°C
Rel
Hum
%
Delta-T
°C
Wind Press
QNH
hPa
Press
MSL
hPa
Rain since
9am
mm
Dir  Spd
km/h
Gust
km/h
Spd
kts
Gust
kts
23/11:30pm 17.9 18.5 11.9 68 3.3 CALM 0 0 0 0 1013.0 1013.0 0.0
23/11:00pm 18.2 17.5 11.3 64 3.8 NW 6 9 3 5 1013.3 1013.3 0.0
23/10:30pm 18.1 17.3 11.0 63 3.8 WSW 6 11 3 6 1013.3 1013.3 0.0
23/10:00pm 20.3 19.9 13.0 63 4.1 ESE 7 7 4 4 1013.2 1013.2 0.0
23/09:30pm 20.2 20.1 13.4 65 3.9 ESE 6 7 3 4 1013.3 1013.3 0.0
23/09:00pm 20.2 19.5 13.2 64 4.0 ESE 9 9 5 5 1013.1 1013.1 0.0
23/08:30pm 20.0 19.7 13.2 65 3.9 SSE 7 7 4 4 1013.1 1013.1 0.0
23/08:00pm 20.2 21.3 13.4 65 3.9 CALM 0 0 0 0 1012.9 1012.9 0.0
23/07:30pm 21.8 23.0 13.9 61 4.6 CALM 0 0 0 0 1012.5 1012.5 0.0
23/07:00pm 22.1 23.3 13.7 59 4.9 CALM 0 0 0 0 1012.2 1012.2 0.0
23/06:30pm 24.0 24.1 13.8 53 6.0 NW 6 9 3 5 1012.0 1012.0 0.0
23/06:00pm 24.4 24.5 13.9 52 6.2 NW 6 7 3 4 1011.7 1011.7 0.0
23/05:30pm 25.3 24.9 14.1 50 6.6 NW 9 13 5 7 1011.4 1011.4 0.0
23/05:00pm 27.4 26.3 14.4 45 7.8 NW 13 15 7 8 1011.2 1011.2 0.0
23/04:30pm 29.2 27.9 13.8 39 9.2 NW 13 15 7 8 1011.0 1011.0 0.0
23/04:00pm 29.9 28.6 13.6 36 9.8 NW 13 17 7 9 1010.9 1010.9 0.0
23/03:30pm 30.7 29.0 13.5 35 10.3 NW 15 19 8 10 1010.8 1010.8 0.0
23/03:00pm 30.2 28.8 15.5 41 9.1 NW 17 20 9 11 1010.8 1010.8 0.0
23/02:30pm 30.6 29.3 15.8 40 9.2 NW 17 20 9 11 1011.1 1011.1 0.0
23/02:00pm 30.6 28.9 14.7 38 9.7 NW 17 22 9 12 1011.4 1011.4 0.0
23/01:30pm 31.2 29.5 14.8 37 10.0 NW 17 20 9 11 1011.7 1011.7 0.0
23/01:00pm 31.4 29.5 14.1 35 10.5 NW 17 20 9 11 1012.3 1012.3 0.0
23/12:30pm 31.6 30.2 13.4 33 10.9 NNW 13 24 7 13 1012.7 1012.7 0.0
23/12:00pm 31.5 31.2 13.3 33 10.9 NNW 7 13 4 7 1013.3 1013.3 0.0
23/11:30am 31.3 30.5 11.1 29 11.7 ESE 6 11 3 6 1013.9 1013.9 0.0
23/11:00am 30.6 30.1 12.0 32 10.9 ESE 6 13 3 7 1014.5 1014.5 0.0
23/10:30am 29.5 28.6 11.5 33 10.4 ESE 7 9 4 5 1015.0 1015.0 0.0
23/10:00am 28.8 28.4 13.1 38 9.3 E 7 11 4 6 1015.6 1015.6 0.0
23/09:30am 27.0 26.8 13.7 44 7.9 ESE 7 13 4 7 1015.8 1015.8 0.0
23/09:00am 25.3 25.1 13.5 48 6.9 S 7 11 4 6 1015.9 1015.9 0.0
23/08:30am 23.3 22.6 13.2 53 5.8 S 9 13 5 7 1016.1 1016.1 0.0
23/08:00am 22.0 22.0 14.1 61 4.6 E 7 9 4 5 1015.6 1015.6 0.0
23/07:30am 19.2 19.0 12.9 67 3.5 SSE 6 7 3 4 1015.5 1015.5 0.0
23/07:00am 17.1 15.8 12.6 75 2.5 S 11 13 6 7 1015.2 1015.2 0.0
23/06:30am 16.2 14.9 12.6 79 2.0 S 11 13 6 7 1014.9 1014.9 0.0
23/06:00am 16.4 15.6 12.8 79 2.0 S 9 11 5 6 1014.6 1014.6 0.0
23/05:30am 17.0 15.8 12.9 77 2.3 S 11 15 6 8 1014.5 1014.5 0.0
23/05:00am 17.5 16.4 13.2 76 2.4 SSE 11 13 6 7 1014.4 1014.4 0.0
23/04:30am 17.6 17.0 13.5 77 2.3 SE 9 11 5 6 1014.1 1014.1 0.0
23/04:00am 17.5 16.9 13.4 77 2.3 SSE 9 11 5 6 1014.1 1014.1 0.0
23/03:30am 17.4 16.7 13.3 77 2.3 SSE 9 13 5 7 1014.1 1014.1 0.0
23/03:00am 17.2 17.1 13.9 81 1.9 SSE 7 9 4 5 1014.1 1014.1 0.0
23/02:30am 16.7 16.7 13.6 82 1.7 SE 6 7 3 4 1014.3 1014.3 0.0
23/02:00am 17.1 17.0 13.8 81 1.9 SSE 7 7 4 4 1014.4 1014.4 0.0
23/01:30am 17.4 17.4 14.3 82 1.8 SSE 7 9 4 5 1014.7 1014.7 0.0
23/01:00am 18.1 18.9 14.8 81 1.9 S 4 6 2 3 1015.0 1015.0 0.0
23/12:30am 17.9 18.1 14.6 81 1.9 SSE 7 7 4 4 1015.1 1015.1 0.0
23/12:00am 17.9 19.5 14.8 82 1.8 CALM 0 0 0 0 1015.0 1015.0 0.0
 
Date/Time
WST
Temp
°C
App
Temp
°C
Dew
Point
°C
Rel
Hum
%
Delta-T
°C
Wind Press
QNH
hPa
Press
MSL
hPa
Rain since
9am
mm
Dir  Spd
km/h
Gust
km/h
Spd
kts
Gust
kts
22/11:30pm 19.0 20.4 14.3 74 2.7 CALM 0 0 0 0 1015.1 1015.1 0.0
22/11:00pm 20.8 21.7 16.2 75 2.8 NNW 6 7 3 4 1015.2 1015.2 0.0
22/10:30pm 20.7 20.7 15.3 71 3.2 NNW 9 11 5 6 1015.4 1015.4 0.0
22/10:00pm 21.3 21.8 15.6 70 3.4 NNW 7 9 4 5 1015.5 1015.5 0.0
22/09:30pm 21.6 21.6 15.2 67 3.8 NNW 9 11 5 6 1015.5 1015.5 0.0
22/09:00pm 21.6 21.7 15.4 68 3.7 NNW 9 11 5 6 1015.5 1015.5 0.0
22/08:30pm 21.7 21.7 15.3 67 3.8 NW 9 11 5 6 1015.4 1015.4 0.0
22/08:00pm 22.0 22.0 16.3 70 3.4 WNW 11 13 6 7 1015.2 1015.2 0.0
22/07:30pm 23.0 21.6 10.8 46 6.8 NNW 9 9 5 5 1014.9 1014.9 0.0
22/07:00pm 23.9 23.0 11.3 45 7.1 N 7 7 4 4 1014.6 1014.6 0.0
22/06:30pm 24.3 23.5 11.6 45 7.2 N 7 9 4 5 1014.3 1014.3 0.0
22/06:00pm 24.9 23.0 10.4 40 8.0 NNW 11 13 6 7 1013.8 1013.8 0.0
22/05:30pm 26.3 24.8 10.5 37 8.8 N 9 11 5 6 1013.5 1013.5 0.0
22/05:00pm 28.7 27.0 9.9 31 10.5 N 9 11 5 6 1013.1 1013.1 0.0
22/04:30pm 30.0 28.3 10.0 29 11.3 N 9 13 5 7 1012.9 1012.9 0.0
22/04:00pm 30.6 28.9 10.0 28 11.7 N 9 13 5 7 1012.7 1012.7 0.0
22/03:30pm 31.1 28.8 10.4 28 11.8 NW 13 17 7 9 1012.6 1012.6 0.0
22/03:00pm 31.1 29.0 11.0 29 11.6 NW 13 17 7 9 1012.6 1012.6 0.0
22/02:30pm 31.5 28.4 10.2 27 12.2 NW 17 22 9 12 1012.8 1012.8 0.0
22/02:00pm 30.7 27.8 11.1 30 11.3 NNW 17 22 9 12 1013.0 1013.0 0.0
22/01:30pm 30.7 28.8 13.0 33 10.5 NW 15 20 8 11 1013.3 1013.3 0.0
22/01:00pm 31.4 30.4 14.5 35 10.3 NW 13 17 7 9 1013.6 1013.6 0.0
22/12:30pm 30.4 29.1 13.7 36 10.0 NNW 13 20 7 11 1014.0 1014.0 0.0
22/12:00pm 30.0 29.0 12.4 34 10.3 NW 9 13 5 7 1014.4 1014.4 0.0
22/11:30am 30.4 29.0 12.3 33 10.6 NW 11 13 6 7 1014.8 1014.8 0.0
22/11:00am 29.8 28.8 10.4 30 11.0 WNW 6 9 3 5 1015.2 1015.2 0.0
22/10:30am 29.1 28.3 11.2 33 10.3 E 6 9 3 5 1015.6 1015.6 0.0
22/10:00am 28.5 28.5 12.4 37 9.4 ENE 4 11 2 6 1016.0 1016.0 0.0

Other Formats:

Comma delimited format used in spreadsheet applications
http://www.bom.gov.au/fwo/IDW60801/IDW60801.95205.axf

JavaScript Object Notation format (JSON) in row-major order
http://www.bom.gov.au/fwo/IDW60801/IDW60801.95205.json